Time;durP1;ratioP1;P1;durP2;ratioP2;P2;SDS_P1;SDS_P2;PMS_P1;PMS_P2;Temp;Humidity;BMP_temperature;BMP_pressure;BME280_temperature;BME280_humidity;BME280_pressure;Samples;Min_cycle;Max_cycle;Signal;HPM_P1;HPM_P2
2021/12/30 00:01:50;;;;;;;43.22;17.17;;;;;;;1.83;88.29;99437.09;4932792;29;19965;-88
2021/12/30 00:04:23;;;;;;;43.72;18.63;;;;;;;1.57;88.26;99406.16;4918121;29;20103;-89
2021/12/30 00:06:54;;;;;;;52.30;21.15;;;;;;;1.43;88.29;99377.22;4936718;29;20071;-90
2021/12/30 00:09:28;;;;;;;64.32;22.42;;;;;;;1.71;87.60;99425.00;4923342;29;20043;-89
2021/12/30 00:11:59;;;;;;;52.28;21.85;;;;;;;1.85;87.54;99448.06;4932297;29;20069;-89
2021/12/30 00:14:45;;;;;;;45.47;17.90;;;;;;;1.59;87.79;99428.81;4921355;29;20058;-90
2021/12/30 00:17:15;;;;;;;44.20;17.58;;;;;;;1.56;88.19;99454.72;4919563;29;20066;-90
2021/12/30 00:19:45;;;;;;;47.33;18.30;;;;;;;1.77;87.81;99472.13;4916540;29;20147;-87
2021/12/30 00:22:19;;;;;;;45.45;19.00;;;;;;;1.82;88.29;99483.19;4934213;29;20051;-89
2021/12/30 00:24:51;;;;;;;41.13;17.20;;;;;;;1.86;88.24;99475.78;4888077;29;20405;-89
2021/12/30 00:27:21;;;;;;;45.35;18.08;;;;;;;1.85;87.56;99474.06;4919067;29;20561;-88
2021/12/30 00:29:54;;;;;;;36.53;16.58;;;;;;;1.46;87.61;99399.09;4910018;29;20394;-88
2021/12/30 00:32:24;;;;;;;43.88;19.30;;;;;;;1.90;87.64;99481.75;4904302;29;20052;-90
2021/12/30 00:34:57;;;;;;;71.13;25.48;;;;;;;1.62;88.10;99438.97;4933690;29;20502;-90
2021/12/30 00:37:27;;;;;;;86.70;29.83;;;;;;;1.77;87.97;99474.66;4934995;29;20051;-90
2021/12/30 00:40:01;;;;;;;53.25;23.42;;;;;;;1.37;87.88;99416.41;4918179;29;20047;-89
2021/12/30 00:42:33;;;;;;;50.38;21.33;;;;;;;1.86;88.25;99490.03;4919922;29;20056;-89
2021/12/30 00:45:07;;;;;;;43.20;19.15;;;;;;;1.25;88.14;99392.59;4918308;29;20402;-90
2021/12/30 00:47:37;;;;;;;44.72;18.02;;;;;;;1.54;88.07;99430.31;4935806;29;20056;-89
2021/12/30 00:50:08;;;;;;;37.58;18.25;;;;;;;1.82;87.52;99480.69;4929151;29;20071;-90
2021/12/30 00:52:39;;;;;;;52.10;18.63;;;;;;;1.89;87.92;99485.09;4885074;29;20048;-90
2021/12/30 00:55:11;;;;;;;43.75;18.25;;;;;;;1.88;87.76;99493.44;4919519;29;20059;-89
2021/12/30 00:57:42;;;;;;;45.50;17.70;;;;;;;1.85;87.82;99493.34;4908032;29;20055;-89
2021/12/30 01:00:19;;;;;;;33.83;16.42;;;;;;;1.91;87.97;99494.41;4933590;29;20076;-90
2021/12/30 01:02:52;;;;;;;40.90;17.95;;;;;;;1.60;87.85;99450.66;4934663;29;20090;-89
2021/12/30 01:05:23;;;;;;;41.78;18.20;;;;;;;1.97;88.01;99483.63;4953712;29;20039;-88
2021/12/30 01:07:53;;;;;;;42.50;18.92;;;;;;;1.91;87.71;99480.94;4954772;28;20055;-87
2021/12/30 01:10:29;;;;;;;44.83;18.63;;;;;;;1.94;88.20;99483.56;4953216;29;20114;-89
2021/12/30 01:13:05;;;;;;;49.00;20.92;;;;;;;1.98;88.57;99490.41;4953379;29;20378;-88
2021/12/30 01:15:55;;;;;;;42.30;18.00;;;;;;;2.01;88.31;99496.38;4919941;29;20086;-89
2021/12/30 01:18:30;;;;;;;;;;;;;;;2.01;87.60;99490.50;4951674;28;20039;-89
2021/12/30 01:21:00;;;;;;;42.05;17.95;;;;;;;2.02;87.62;99492.19;4935151;29;20443;-89
2021/12/30 01:23:30;;;;;;;;;;;;;;;2.01;87.83;99495.53;4905416;29;20134;-89
2021/12/30 01:26:03;;;;;;;37.00;16.15;;;;;;;1.76;88.13;99453.69;4922999;29;20349;-89
2021/12/30 01:28:37;;;;;;;38.08;18.23;;;;;;;2.02;87.84;99507.28;4937767;29;20053;-89
2021/12/30 01:31:14;;;;;;;39.33;18.70;;;;;;;1.68;87.50;99454.25;4953787;29;20051;-89
2021/12/30 01:33:47;;;;;;;42.15;19.67;;;;;;;1.90;88.43;99491.81;4906803;29;20043;-90
2021/12/30 01:36:21;;;;;;;43.80;19.77;;;;;;;1.79;88.07;99457.94;4953355;28;20090;-89
2021/12/30 01:38:51;;;;;;;40.58;20.00;;;;;;;1.79;87.95;99468.00;4938042;29;20051;-89
2021/12/30 01:41:27;;;;;;;45.90;19.52;;;;;;;2.04;87.84;99510.69;4935784;29;20078;-89
2021/12/30 01:43:58;;;;;;;40.90;17.98;;;;;;;1.91;88.07;99489.38;4954274;29;20486;-88
2021/12/30 01:46:38;;;;;;;43.53;19.92;;;;;;;2.13;87.73;99521.06;4953429;29;20134;-88
2021/12/30 01:49:09;;;;;;;37.90;16.63;;;;;;;1.87;88.15;99482.50;4953445;29;20047;-88
2021/12/30 01:51:44;;;;;;;39.03;16.83;;;;;;;2.02;87.88;99518.22;4951731;29;20048;-88
2021/12/30 01:54:14;;;;;;;41.10;17.90;;;;;;;2.01;87.67;99521.56;4955676;28;20470;-88
2021/12/30 01:56:51;;;;;;;35.22;17.63;;;;;;;2.07;88.39;99530.94;4920530;29;20405;-88
2021/12/30 01:59:26;;;;;;;37.33;16.70;;;;;;;2.12;88.50;99519.34;4938270;29;20054;-88
2021/12/30 02:01:58;;;;;;;38.67;17.60;;;;;;;2.16;88.50;99526.16;4935186;29;20043;-86
2021/12/30 02:04:34;;;;;;;39.40;16.13;;;;;;;2.06;88.15;99509.09;4936904;29;20075;-87
2021/12/30 02:07:09;;;;;;;40.72;17.52;;;;;;;2.13;88.46;99526.09;4954748;28;20464;-88
2021/12/30 02:09:38;;;;;;;36.17;16.38;;;;;;;2.20;87.84;99517.91;4924547;29;20057;-89
2021/12/30 02:12:12;;;;;;;41.08;16.55;;;;;;;2.22;88.44;99523.84;4955011;28;20051;-89
2021/12/30 02:14:42;;;;;;;40.47;16.38;;;;;;;2.23;87.72;99515.47;4940023;29;20039;-88
2021/12/30 02:17:11;;;;;;;37.55;15.73;;;;;;;2.24;88.69;99514.66;4956639;28;20500;-89
2021/12/30 02:19:42;;;;;;;42.65;16.98;;;;;;;1.92;88.14;99460.03;4941476;29;20035;-89
2021/12/30 02:22:14;;;;;;;36.65;16.15;;;;;;;2.25;87.86;99510.50;4958617;29;20051;-88
2021/12/30 02:24:47;;;;;;;32.08;15.77;;;;;;;1.55;88.32;99384.28;4957392;29;20047;-89
2021/12/30 02:27:21;;;;;;;34.88;15.13;;;;;;;2.22;88.04;99507.88;4940362;29;20147;-89
2021/12/30 02:29:53;;;;;;;36.35;16.58;;;;;;;2.16;87.86;99495.97;4956515;29;20055;-88
2021/12/30 02:32:25;;;;;;;39.13;15.65;;;;;;;2.22;88.52;99496.16;4956347;29;20047;-89
2021/12/30 02:34:56;;;;;;;36.38;15.75;;;;;;;2.22;88.02;99498.66;4922871;29;20043;-89
2021/12/30 02:37:31;;;;;;;39.03;16.67;;;;;;;2.07;87.87;99485.63;4909735;29;20051;-89
2021/12/30 02:40:08;;;;;;;40.45;16.13;;;;;;;2.04;87.85;99475.47;4958696;29;20059;-88
2021/12/30 02:42:38;;;;;;;28.63;14.27;;;;;;;2.10;87.32;99492.41;4881818;29;20181;-88
2021/12/30 02:45:08;;;;;;;34.67;14.90;;;;;;;2.06;88.21;99478.91;4898728;29;20053;-89
2021/12/30 02:47:38;;;;;;;30.50;14.15;;;;;;;2.01;87.31;99477.91;4867289;29;20048;-88
2021/12/30 02:50:09;;;;;;;33.50;14.88;;;;;;;2.01;88.07;99490.50;4867493;29;20075;-89
2021/12/30 02:52:41;;;;;;;34.35;14.98;;;;;;;2.02;88.01;99494.69;4886547;29;20048;-89
2021/12/30 02:55:14;;;;;;;35.03;15.57;;;;;;;1.76;88.28;99453.69;4883316;29;20047;-88
2021/12/30 02:57:48;;;;;;;30.23;13.85;;;;;;;2.11;87.55;99507.59;4898788;29;20137;-89
2021/12/30 03:00:21;;;;;;;27.50;13.57;;;;;;;2.15;87.49;99519.44;4852769;29;20603;-88
2021/12/30 03:02:50;;;;;;;31.77;14.30;;;;;;;2.08;87.62;99497.41;4881218;29;20052;-88
2021/12/30 03:05:21;;;;;;;35.40;14.80;;;;;;;2.17;87.49;99522.84;4868283;29;20072;-89
2021/12/30 03:07:52;;;;;;;30.15;13.52;;;;;;;2.18;88.66;99514.50;4922491;29;20090;-88
2021/12/30 03:10:25;;;;;;;27.33;12.38;;;;;;;1.85;88.40;99463.16;4949953;29;20047;-88
2021/12/30 03:13:04;;;;;;;29.38;12.50;;;;;;;2.09;87.60;99505.81;4903397;29;20466;-89
2021/12/30 03:15:34;;;;;;;34.03;14.57;;;;;;;2.20;87.93;99527.97;4923704;29;20549;-88
2021/12/30 03:18:05;;;;;;;29.65;13.68;;;;;;;2.24;87.99;99534.81;4948915;29;20413;-88
2021/12/30 03:20:36;;;;;;;30.67;13.88;;;;;;;2.30;87.96;99540.03;4956001;29;20051;-88
2021/12/30 03:23:08;;;;;;;31.77;13.57;;;;;;;1.96;87.67;99481.94;4937242;29;20505;-87
2021/12/30 03:25:38;;;;;;;28.95;14.13;;;;;;;1.63;87.18;99435.66;4939992;29;20122;-88
2021/12/30 03:28:07;;;;;;;28.75;14.38;;;;;;;2.09;87.91;99529.31;4937739;29;20051;-87
2021/12/30 03:30:40;;;;;;;30.15;13.35;;;;;;;2.24;87.68;99549.91;4941056;29;20102;-89
2021/12/30 03:33:10;;;;;;;31.17;13.57;;;;;;;2.20;88.21;99550.63;4952882;29;20051;-87
2021/12/30 03:35:42;;;;;;;31.45;13.90;;;;;;;2.15;87.63;99547.13;4935690;29;20129;-89
2021/12/30 03:38:15;;;;;;;31.27;14.00;;;;;;;1.70;87.88;99466.06;4938374;29;20055;-89
2021/12/30 03:40:45;;;;;;;30.63;13.75;;;;;;;1.86;87.93;99495.06;4957509;29;20139;-88
2021/12/30 03:43:18;;;;;;;28.15;12.98;;;;;;;2.18;88.12;99538.81;4912958;29;20605;-88
2021/12/30 03:45:48;;;;;;;31.70;13.50;;;;;;;2.19;87.74;99561.50;4917535;29;20048;-88
2021/12/30 03:48:24;;;;;;;33.42;14.90;;;;;;;2.29;87.59;99568.53;4898286;29;20044;-89
2021/12/30 03:50:57;;;;;;;26.75;12.77;;;;;;;2.27;87.83;99575.19;4883958;29;20052;-88
2021/12/30 03:53:29;;;;;;;32.85;14.48;;;;;;;2.28;87.67;99586.94;4914923;29;20076;-88
2021/12/30 03:55:59;;;;;;;26.70;13.77;;;;;;;2.30;88.11;99600.47;4898255;29;20044;-88
2021/12/30 03:58:32;;;;;;;30.13;13.68;;;;;;;2.29;88.11;99601.25;4883031;29;20048;-87
2021/12/30 04:01:02;;;;;;;32.03;13.30;;;;;;;1.94;87.87;99549.00;4883978;29;20048;-89
2021/12/30 04:03:35;;;;;;;34.08;14.40;;;;;;;2.15;87.01;99579.84;4913146;29;20104;-89
2021/12/30 04:06:06;;;;;;;28.55;14.18;;;;;;;2.12;87.59;99568.81;4915916;29;20044;-89
2021/12/30 04:08:40;;;;;;;31.63;13.77;;;;;;;2.06;88.19;99568.66;4944037;29;20047;-89
2021/12/30 04:11:14;;;;;;;30.58;12.65;;;;;;;1.98;88.01;99560.84;4955912;28;20052;-88
2021/12/30 04:13:47;;;;;;;28.45;12.93;;;;;;;2.11;87.21;99575.53;4922888;29;20051;-89
2021/12/30 04:16:17;;;;;;;26.95;12.35;;;;;;;2.13;87.81;99573.91;4938779;29;20047;-89
2021/12/30 04:18:48;;;;;;;30.38;13.48;;;;;;;2.14;88.18;99583.16;4955293;29;20047;-89
2021/12/30 04:21:20;;;;;;;26.38;13.98;;;;;;;2.20;87.67;99587.53;4937513;29;20489;-90
2021/12/30 04:23:55;;;;;;;30.80;13.95;;;;;;;2.21;87.10;99604.38;4905802;29;20043;-89
2021/12/30 04:26:29;;;;;;;32.55;13.98;;;;;;;1.66;87.65;99501.97;4954297;29;20039;-89
2021/12/30 04:29:00;;;;;;;27.23;12.10;;;;;;;2.19;87.26;99605.94;4955880;28;20035;-89
2021/12/30 04:31:29;;;;;;;25.05;12.23;;;;;;;2.02;87.29;99582.78;4938746;29;20054;-88
2021/12/30 04:34:01;;;;;;;25.45;11.80;;;;;;;1.94;87.67;99581.69;4936411;29;20069;-88
2021/12/30 04:36:34;;;;;;;30.73;13.55;;;;;;;2.16;87.68;99631.88;4937304;29;20043;-89
2021/12/30 04:39:06;;;;;;;28.95;13.25;;;;;;;1.00;87.28;99445.38;4954311;29;20043;-88
2021/12/30 04:41:36;;;;;;;26.67;13.15;;;;;;;2.08;87.43;99627.41;4955589;28;20075;-88
2021/12/30 04:44:11;;;;;;;29.92;13.68;;;;;;;2.21;87.26;99634.56;4950864;29;20094;-89
2021/12/30 04:46:45;;;;;;;33.92;13.52;;;;;;;2.22;87.68;99624.53;4921859;29;20561;-89
2021/12/30 04:49:18;;;;;;;31.38;14.45;;;;;;;2.13;87.91;99601.59;4939185;29;20429;-86
2021/12/30 04:51:49;;;;;;;29.05;14.05;;;;;;;2.30;87.77;99625.63;4953531;29;20035;-89
2021/12/30 04:54:20;;;;;;;28.70;13.05;;;;;;;2.38;87.69;99624.19;4954783;29;20047;-88
2021/12/30 04:56:54;;;;;;;32.15;14.57;;;;;;;2.12;87.96;99592.31;4936847;29;20059;-88
2021/12/30 04:59:26;;;;;;;27.85;13.13;;;;;;;2.22;87.67;99627.06;4921955;29;20083;-89
2021/12/30 05:02:01;;;;;;;31.52;12.65;;;;;;;1.80;87.91;99550.22;4953694;29;20097;-88
2021/12/30 05:04:31;;;;;;;29.40;13.18;;;;;;;1.79;88.01;99551.03;4934049;29;20408;-88
2021/12/30 05:07:04;;;;;;;33.05;14.30;;;;;;;2.41;87.81;99649.47;4905660;29;20043;-88
2021/12/30 05:09:36;;;;;;;30.13;14.10;;;;;;;2.07;87.78;99590.47;4937352;29;20106;-88
2021/12/30 05:12:08;;;;;;;28.88;14.85;;;;;;;2.38;87.73;99641.81;4930044;29;20086;-89
2021/12/30 05:14:40;;;;;;;31.52;14.43;;;;;;;2.44;87.74;99643.69;4931705;29;20401;-88
2021/12/30 05:17:11;;;;;;;34.53;13.98;;;;;;;2.45;87.82;99658.81;4906268;29;20081;-89
2021/12/30 05:19:41;;;;;;;29.48;13.15;;;;;;;1.92;87.74;99573.25;4903501;29;20043;-89
2021/12/30 05:22:11;;;;;;;34.28;14.18;;;;;;;2.47;87.29;99667.28;4935938;29;20067;-87
2021/12/30 05:24:42;;;;;;;;;;;;;;;2.49;87.62;99683.31;4928383;29;20481;-89
2021/12/30 05:27:12;;;;;;;28.17;12.18;;;;;;;2.31;87.81;99652.50;4954625;29;19930;-86
2021/12/30 05:29:45;;;;;;;29.80;13.88;;;;;;;2.31;87.68;99647.47;4921808;29;20047;-90
2021/12/30 05:32:15;;;;;;;34.15;14.50;;;;;;;1.55;87.54;99532.63;4955081;29;20129;-89
2021/12/30 05:34:45;;;;;;;28.33;13.98;;;;;;;2.44;87.37;99687.34;4952916;29;20055;-89
2021/12/30 05:37:15;;;;;;;41.95;16.27;;;;;;;2.48;87.58;99685.78;4951736;29;20163;-89
2021/12/30 05:39:48;;;;;;;31.88;14.35;;;;;;;2.45;88.18;99691.56;4954604;29;20047;-89
2021/12/30 05:42:18;;;;;;;35.72;15.27;;;;;;;2.09;87.00;99629.97;4953666;28;20501;-90
2021/12/30 05:44:48;;;;;;;35.10;15.43;;;;;;;2.32;87.54;99689.47;4946353;29;20493;-90
2021/12/30 05:47:19;;;;;;;36.83;16.00;;;;;;;2.31;87.63;99702.88;4908584;29;20039;-90
2021/12/30 05:49:49;;;;;;;42.25;18.42;;;;;;;1.99;87.72;99658.19;4933175;29;20043;-90
2021/12/30 05:52:19;;;;;;;41.03;16.92;;;;;;;2.05;87.40;99673.47;4956129;29;20063;-90
2021/12/30 05:54:50;;;;;;;39.15;16.92;;;;;;;1.41;87.53;99569.03;4941937;29;20040;-90
2021/12/30 05:57:21;;;;;;;32.40;15.55;;;;;;;1.51;87.50;99583.63;4920725;29;20135;-90
2021/12/30 05:59:54;;;;;;;34.85;16.55;;;;;;;2.32;87.68;99714.66;4950088;29;20039;-88
2021/12/30 06:02:25;;;;;;;34.30;14.80;;;;;;;2.38;87.28;99724.91;4957723;28;20043;-89
2021/12/30 06:04:55;;;;;;;36.25;16.00;;;;;;;2.39;87.27;99731.69;4952803;28;20086;-90
2021/12/30 06:07:25;;;;;;;38.85;16.80;;;;;;;2.39;87.70;99730.81;4941465;29;20067;-90
2021/12/30 06:09:59;;;;;;;36.60;17.45;;;;;;;2.32;87.58;99726.38;4955308;29;20077;-90
2021/12/30 06:12:33;;;;;;;40.40;16.55;;;;;;;2.24;87.73;99727.78;4958011;28;20053;-91
2021/12/30 06:15:03;;;;;;;36.17;17.30;;;;;;;2.01;87.78;99697.72;4922166;29;20087;-90
2021/12/30 06:17:37;;;;;;;36.45;16.52;;;;;;;2.22;87.08;99731.91;4940811;29;20051;-91
2021/12/30 06:20:09;;;;;;;38.22;15.63;;;;;;;2.22;88.04;99737.81;4956102;29;20053;-90
2021/12/30 06:22:39;;;;;;;30.33;15.68;;;;;;;2.27;87.24;99740.47;4939917;29;20043;-90
2021/12/30 06:25:13;;;;;;;33.58;14.13;;;;;;;2.31;87.70;99737.25;4956598;28;20138;-90
2021/12/30 06:27:43;;;;;;;35.40;15.57;;;;;;;2.36;87.60;99736.59;4940945;29;20512;-91
2021/12/30 06:30:14;;;;;;;36.97;16.13;;;;;;;2.37;87.61;99742.50;4923148;28;20048;-90
2021/12/30 06:32:47;;;;;;;34.08;14.73;;;;;;;2.36;88.03;99740.78;4924759;29;20039;-91
2021/12/30 06:35:17;;;;;;;34.38;15.80;;;;;;;1.84;87.56;99678.69;4940945;28;20085;-90
2021/12/30 06:37:48;;;;;;;33.67;15.50;;;;;;;1.99;87.26;99700.97;4956021;29;20074;-90
2021/12/30 06:40:23;;;;;;;39.08;15.98;;;;;;;2.20;87.90;99736.91;4917622;29;20051;-91
2021/12/30 06:42:56;;;;;;;30.73;15.60;;;;;;;1.93;87.84;99709.16;4956124;29;20075;-91
2021/12/30 06:45:30;;;;;;;42.42;15.65;;;;;;;1.89;87.86;99701.47;4941077;29;20047;-91
2021/12/30 06:48:00;;;;;;;38.88;16.13;;;;;;;2.19;87.81;99757.84;4956449;28;20138;-90
2021/12/30 06:50:32;;;;;;;36.88;16.42;;;;;;;2.22;87.83;99760.47;4949505;28;20044;-91
2021/12/30 06:53:02;;;;;;;35.75;15.30;;;;;;;2.09;87.17;99735.69;4940964;28;20063;-90
2021/12/30 06:55:35;;;;;;;34.40;15.73;;;;;;;2.22;87.43;99768.03;4937853;29;20043;-90
2021/12/30 06:58:06;;;;;;;31.85;14.50;;;;;;;2.28;87.32;99778.28;4957643;29;20056;-89
2021/12/30 07:00:36;;;;;;;36.10;15.50;;;;;;;2.31;87.24;99780.91;4952875;29;20584;-90
2021/12/30 07:03:10;;;;;;;39.50;16.00;;;;;;;2.27;87.81;99771.56;4953174;29;20146;-91
2021/12/30 07:05:43;;;;;;;37.45;16.02;;;;;;;1.94;87.30;99720.09;4954977;28;20437;-91
2021/12/30 07:08:16;;;;;;;32.90;15.30;;;;;;;2.32;88.14;99795.22;4945714;29;20046;-91
2021/12/30 07:10:54;;;;;;;39.03;16.88;;;;;;;2.11;87.48;99764.31;4955781;29;20596;-91
2021/12/30 07:13:24;;;;;;;34.40;15.05;;;;;;;2.25;87.99;99788.28;4923319;29;20047;-91
2021/12/30 07:15:56;;;;;;;33.10;15.52;;;;;;;2.23;87.86;99784.00;4952023;29;20071;-92
2021/12/30 07:18:26;;;;;;;32.08;14.93;;;;;;;2.17;87.70;99763.63;4947346;29;20509;-91
2021/12/30 07:20:56;;;;;;;34.88;15.55;;;;;;;2.27;87.32;99776.59;4951944;29;20075;-92
2021/12/30 07:23:28;;;;;;;38.97;16.98;;;;;;;2.45;88.06;99792.31;4932036;29;20051;-92
2021/12/30 07:26:03;;;;;;;39.38;17.55;;;;;;;2.18;87.75;99751.13;4933458;29;20513;-92
2021/12/30 07:28:37;;;;;;;36.20;16.27;;;;;;;2.44;87.95;99800.69;4923618;29;20043;-91
2021/12/30 07:31:07;;;;;;;40.00;16.50;;;;;;;2.45;87.46;99797.34;4940216;29;20047;-91
2021/12/30 07:33:38;;;;;;;37.55;16.77;;;;;;;2.31;87.80;99797.69;4937223;29;20051;-88
2021/12/30 07:36:08;;;;;;;41.05;16.10;;;;;;;2.25;87.82;99810.94;4939036;29;20053;-87
2021/12/30 07:38:38;;;;;;;38.10;15.38;;;;;;;2.16;87.71;99815.63;4954090;28;20039;-91
2021/12/30 07:41:13;;;;;;;35.58;14.95;;;;;;;1.86;88.04;99766.78;4928044;29;20055;-91
2021/12/30 07:43:43;;;;;;;32.45;15.25;;;;;;;2.08;87.95;99819.56;4936754;29;20106;-91
2021/12/30 07:46:14;;;;;;;34.50;14.00;;;;;;;2.01;88.01;99816.00;4950956;29;20130;-91
2021/12/30 07:48:44;;;;;;;32.00;14.02;;;;;;;2.05;88.02;99824.47;4939158;29;20505;-91
2021/12/30 07:51:15;;;;;;;33.47;14.80;;;;;;;1.90;87.56;99798.78;4952340;28;20054;-90
2021/12/30 07:53:45;;;;;;;32.30;13.93;;;;;;;1.90;87.62;99804.66;4948777;29;20039;-90
2021/12/30 07:56:17;;;;;;;32.60;14.38;;;;;;;1.84;87.58;99796.06;4937077;29;20089;-91
2021/12/30 07:58:49;;;;;;;34.13;14.70;;;;;;;2.04;87.88;99823.63;4940096;29;20052;-91
2021/12/30 08:01:19;;;;;;;28.45;13.48;;;;;;;2.11;87.45;99834.78;4963003;28;20066;-92
2021/12/30 08:03:49;;;;;;;29.45;14.02;;;;;;;2.15;87.44;99831.56;4943535;29;20510;-91
2021/12/30 08:06:20;;;;;;;28.45;13.65;;;;;;;1.92;88.40;99787.13;4942388;28;20043;-91
2021/12/30 08:08:51;;;;;;;28.83;14.18;;;;;;;2.17;88.20;99829.94;4939376;29;20122;-93
2021/12/30 08:11:23;;;;;;;25.65;12.80;;;;;;;2.26;87.87;99840.31;4945440;28;20134;-90
2021/12/30 08:13:52;;;;;;;31.38;14.43;;;;;;;2.33;88.39;99851.47;4912919;28;20454;-90
2021/12/30 08:16:21;;;;;;;27.02;13.63;;;;;;;2.23;88.34;99835.19;4923255;29;20128;-93
2021/12/30 08:18:51;;;;;;;27.95;13.13;;;;;;;2.33;87.67;99852.31;4922271;29;20036;-93
2021/12/30 08:21:21;;;;;;;36.17;15.80;;;;;;;2.22;88.36;99823.41;4951549;28;20115;-91
2021/12/30 08:23:51;;;;;;;35.05;17.50;;;;;;;1.52;87.64;99731.16;4955181;28;20039;-90
2021/12/30 08:26:24;;;;;;;35.45;17.05;;;;;;;2.01;87.25;99828.56;4940111;29;20413;-91
2021/12/30 08:28:53;;;;;;;34.92;17.63;;;;;;;2.31;87.98;99858.09;4902046;29;20095;-92
2021/12/30 08:31:23;;;;;;;35.28;18.00;;;;;;;2.20;87.73;99845.16;4959002;28;20488;-92
2021/12/30 08:33:58;;;;;;;29.90;16.52;;;;;;;1.79;87.88;99790.00;4959100;28;20157;-89
2021/12/30 08:36:28;;;;;;;28.92;14.15;;;;;;;2.11;88.16;99854.91;4940051;29;20142;-89
2021/12/30 08:38:58;;;;;;;30.60;14.32;;;;;;;1.79;87.75;99807.63;4952778;28;20143;-90
2021/12/30 08:41:30;;;;;;;34.22;14.50;;;;;;;1.64;88.60;99770.19;4942169;28;20047;-92
2021/12/30 08:44:00;;;;;;;29.98;14.30;;;;;;;1.90;88.01;99818.91;4947296;28;20047;-90
2021/12/30 08:46:30;;;;;;;29.70;13.73;;;;;;;2.12;88.55;99844.03;4948349;28;20050;-90
2021/12/30 08:48:59;;;;;;;;;;;;;;;2.29;87.85;99875.69;4926764;29;20050;-88
2021/12/30 08:55:42;;;;;;;29.42;13.80;;;;;;;2.11;88.76;99851.53;5064431;23;20064;-89
2021/12/30 08:58:20;;;;;;;29.50;15.27;;;;;;;1.95;88.59;99822.44;4914322;29;20119;-89
2021/12/30 09:00:50;;;;;;;32.10;16.23;;;;;;;1.69;88.03;99778.75;4937040;28;20081;-92
2021/12/30 09:03:21;;;;;;;35.42;15.65;;;;;;;2.35;88.13;99880.94;4941886;28;20571;-89
2021/12/30 09:06:44;;;;;;;34.72;15.38;;;;;;;2.35;88.76;99880.94;4957725;28;20082;-83
2021/12/30 09:09:36;;;;;;;32.17;14.98;;;;;;;2.40;88.11;99894.53;4951682;28;20054;-89
2021/12/30 09:12:10;;;;;;;35.78;15.60;;;;;;;2.47;89.17;99898.97;4951683;28;20555;-90
2021/12/30 09:14:42;;;;;;;37.95;16.00;;;;;;;2.53;88.96;99896.69;4954191;28;20047;-91
2021/12/30 09:17:12;;;;;;;35.28;17.08;;;;;;;2.44;88.62;99881.28;4958894;28;20042;-91
2021/12/30 09:26:38;;;;;;;36.25;16.58;;;;;;;1.87;88.51;99821.34;5262210;23;20070;-91
2021/12/30 09:29:12;;;;;;;37.47;16.85;;;;;;;2.33;88.37;99889.22;4944079;28;20075;-89
2021/12/30 09:31:49;;;;;;;39.83;19.15;;;;;;;1.60;88.75;99762.47;4980136;28;20047;-85
2021/12/30 09:34:21;;;;;;;34.15;17.50;;;;;;;1.82;88.95;99810.25;4955455;28;20042;-87
2021/12/30 09:36:51;;;;;;;28.42;15.18;;;;;;;2.23;88.80;99857.84;4970177;28;20038;-90
2021/12/30 09:39:21;;;;;;;34.00;16.95;;;;;;;2.50;88.97;99881.47;4963783;28;20534;-89
2021/12/30 09:41:52;;;;;;;33.30;17.63;;;;;;;2.56;89.09;99881.69;4967151;28;20043;-89
2021/12/30 09:44:26;;;;;;;33.28;17.67;;;;;;;2.35;88.64;99835.59;4952695;28;20059;-90
2021/12/30 09:46:58;;;;;;;43.50;17.30;;;;;;;2.25;88.69;99821.00;4932713;28;20055;-88
2021/12/30 09:49:29;;;;;;;37.65;17.55;;;;;;;2.37;89.07;99854.16;4951936;28;20047;-90
2021/12/30 09:52:05;;;;;;;35.08;16.60;;;;;;;2.64;88.92;99897.91;4956325;29;20077;-89
2021/12/30 09:54:41;;;;;;;35.40;16.90;;;;;;;2.50;88.91;99871.38;4955976;28;20126;-88
2021/12/30 09:57:16;;;;;;;34.88;17.30;;;;;;;2.55;88.75;99874.94;4908600;29;20047;-89
2021/12/30 09:59:46;;;;;;;29.40;16.08;;;;;;;2.68;89.10;99892.19;4938692;29;20130;-89
2021/12/30 10:02:21;;;;;;;36.22;16.63;;;;;;;2.80;88.64;99885.81;4939397;29;20062;-90
2021/12/30 10:05:06;;;;;;;35.28;18.17;;;;;;;2.70;89.10;99849.38;4955822;29;20102;-89
2021/12/30 10:07:41;;;;;;;36.50;17.92;;;;;;;2.95;89.32;99891.38;4955456;29;20055;-89
2021/12/30 10:10:27;;;;;;;35.47;18.52;;;;;;;3.05;89.00;99888.31;4955600;29;20058;-89
2021/12/30 10:12:58;;;;;;;34.20;15.68;;;;;;;2.73;88.62;99844.47;4955427;28;20051;-90
2021/12/30 10:15:41;;;;;;;38.40;18.30;;;;;;;2.94;89.12;99894.69;4955785;29;20472;-90
2021/12/30 10:18:19;;;;;;;36.88;17.40;;;;;;;2.82;89.26;99895.16;4938539;29;20130;-90
2021/12/30 10:20:57;;;;;;;34.67;16.48;;;;;;;2.73;89.21;99903.25;4940650;29;20059;-89
2021/12/30 10:23:30;;;;;;;37.17;17.05;;;;;;;2.34;89.01;99849.00;4923007;29;20063;-90
2021/12/30 10:26:01;;;;;;;31.35;15.48;;;;;;;2.70;89.21;99910.72;4955029;29;20153;-89
2021/12/30 10:28:37;;;;;;;35.72;16.73;;;;;;;2.83;88.53;99911.13;4956410;28;20106;-87
2021/12/30 10:31:23;;;;;;;37.40;17.38;;;;;;;2.75;88.63;99907.50;4941048;29;20047;-86
2021/12/30 10:34:01;;;;;;;35.80;18.23;;;;;;;2.70;89.01;99905.69;4911025;29;20047;-90
2021/12/30 10:36:36;;;;;;;37.58;16.90;;;;;;;2.65;89.49;99897.09;4958771;28;20043;-90
2021/12/30 10:39:18;;;;;;;40.30;19.20;;;;;;;2.69;88.79;99898.91;4941853;29;20192;-90
2021/12/30 10:41:51;;;;;;;33.50;17.10;;;;;;;2.73;89.11;99897.38;4958929;29;20078;-90
2021/12/30 10:44:25;;;;;;;34.97;17.30;;;;;;;2.71;89.32;99902.34;4958712;29;20051;-90
2021/12/30 10:46:55;;;;;;;34.30;16.45;;;;;;;2.77;89.27;99914.28;4941713;29;20545;-90
2021/12/30 10:49:30;;;;;;;32.38;16.73;;;;;;;2.55;89.00;99862.34;4958529;29;20047;-90
2021/12/30 10:52:07;;;;;;;36.97;16.80;;;;;;;2.72;88.87;99898.16;4926049;29;20055;-90
2021/12/30 10:54:39;;;;;;;41.10;18.45;;;;;;;2.87;89.34;99892.78;4958064;28;20059;-90
2021/12/30 10:57:12;;;;;;;35.83;17.65;;;;;;;2.93;88.87;99887.97;4941901;29;20055;-89
2021/12/30 10:59:48;;;;;;;34.45;16.95;;;;;;;2.46;88.73;99814.19;4941874;29;20054;-90
2021/12/30 11:02:21;;;;;;;36.70;18.23;;;;;;;2.85;89.05;99884.31;4958403;29;20047;-90
2021/12/30 11:05:00;;;;;;;37.92;17.38;;;;;;;2.65;88.88;99840.81;4958441;29;20047;-89
2021/12/30 11:07:42;;;;;;;33.20;16.33;;;;;;;3.12;89.61;99895.31;4941458;29;20063;-89
2021/12/30 11:10:18;;;;;;;37.60;18.67;;;;;;;3.26;89.43;99882.31;4941293;29;20564;-89
2021/12/30 11:12:54;;;;;;;38.92;18.08;;;;;;;3.26;88.37;99878.94;4941717;29;20106;-89
2021/12/30 11:15:27;;;;;;;38.58;18.65;;;;;;;2.97;89.02;99826.75;4941208;29;20079;-89
2021/12/30 11:18:07;;;;;;;38.20;18.73;;;;;;;3.26;88.69;99877.25;4958376;29;20051;-89
2021/12/30 11:20:44;;;;;;;38.38;17.98;;;;;;;3.22;89.32;99874.59;4941313;29;20087;-90
2021/12/30 11:23:19;;;;;;;38.60;18.85;;;;;;;2.85;89.09;99818.78;4957936;29;20135;-88
2021/12/30 11:25:54;;;;;;;35.50;17.83;;;;;;;3.24;88.40;99883.06;4937235;29;20131;-89
2021/12/30 11:28:28;;;;;;;39.90;18.63;;;;;;;2.98;88.58;99833.47;4937583;29;20043;-89
2021/12/30 11:31:02;;;;;;;37.88;17.67;;;;;;;3.25;89.21;99893.22;4938910;29;20482;-90
2021/12/30 11:33:35;;;;;;;38.50;19.00;;;;;;;3.17;88.80;99893.75;4921770;29;20505;-90
2021/12/30 11:36:07;;;;;;;35.08;18.10;;;;;;;2.88;88.73;99871.81;4939053;29;20043;-90
2021/12/30 11:38:40;;;;;;;36.92;17.55;;;;;;;2.56;88.92;99831.31;4938528;29;20052;-89
2021/12/30 11:41:21;;;;;;;40.70;17.70;;;;;;;2.17;88.50;99778.75;4937972;29;20060;-91
2021/12/30 11:43:52;;;;;;;36.13;18.17;;;;;;;2.87;88.95;99892.78;4937229;29;20047;-90
2021/12/30 11:46:40;;;;;;;39.67;18.75;;;;;;;2.88;89.03;99865.09;4938804;29;20047;-90
2021/12/30 11:49:11;;;;;;;43.63;18.70;;;;;;;2.76;89.07;99828.59;4937516;29;20095;-90
2021/12/30 11:51:49;;;;;;;42.45;18.63;;;;;;;3.14;88.80;99869.31;4937211;29;20082;-90
2021/12/30 11:57:32;;;;;;;42.67;19.27;;;;;;;3.10;88.86;99881.75;4864638;29;20048;-90
2021/12/30 12:00:32;;;;;;;42.58;18.88;;;;;;;3.28;88.74;99892.44;4879805;29;20523;-89
2021/12/30 12:03:06;;;;;;;40.75;19.75;;;;;;;3.11;89.26;99863.31;4824602;29;20074;-89
2021/12/30 12:05:43;;;;;;;40.72;20.80;;;;;;;3.43;88.79;99902.16;4809711;29;20133;-90
2021/12/30 12:08:44;;;;;;;37.90;18.92;;;;;;;3.50;88.50;99904.94;4824642;29;20054;-89